Time,TemperatureF,DewpointF,PressureIn,WindDirection,WindDirectionDegrees,WindSpeedMPH,WindSpeedGustMPH,Humidity,HourlyPrecipIn,Conditions,Clouds,dailyrainin,SolarRadiationWatts/m^2,SoftwareType,DateUTC
2013-04-13 00:00:00,52.5,46.2,29.71,NW,313,3.0,7.0,79,0.00,,,0.76,0,WeatherCatV1.15B25,2013-04-13 04:00:00,
2013-04-13 00:01:00,52.3,45.6,29.71,NW,311,12.0,12.0,78,0.00,,,0.00,0,WeatherCatV1.15B25,2013-04-13 04:01:00,
2013-04-13 00:06:00,52.6,44.6,29.71,NW,326,11.0,18.0,74,0.00,,,0.00,0,WeatherCatV1.15B25,2013-04-13 04:06:00,
2013-04-13 00:11:00,52.8,42.5,29.71,NW,318,5.0,10.0,68,0.00,,,0.00,0,WeatherCatV1.15B25,2013-04-13 04:11:00,
2013-04-13 00:16:00,52.9,40.2,29.71,North,359,18.0,20.0,62,0.00,,,0.00,0,WeatherCatV1.15B25,2013-04-13 04:16:00,
2013-04-13 00:21:00,52.9,40.7,29.71,West,263,11.0,17.0,63,0.00,,,0.00,0,WeatherCatV1.15B25,2013-04-13 04:21:00,
2013-04-13 00:26:00,52.8,39.3,29.71,WNW,285,5.0,18.0,60,0.00,,,0.00,0,WeatherCatV1.15B25,2013-04-13 04:26:00,
2013-04-13 00:31:00,52.6,39.5,29.72,NNW,332,7.0,8.0,61,0.00,,,0.00,0,WeatherCatV1.15B25,2013-04-13 04:31:00,
2013-04-13 00:36:00,52.5,38.6,29.72,NNW,335,7.0,10.0,59,0.00,,,0.00,0,WeatherCatV1.15B25,2013-04-13 04:36:00,
2013-04-13 00:41:00,52.8,38.9,29.72,NW,316,7.0,17.0,59,0.00,,,0.00,0,WeatherCatV1.15B25,2013-04-13 04:41:00,
2013-04-13 00:46:00,52.9,37.2,29.72,NNW,346,11.0,13.0,55,0.00,,,0.00,0,WeatherCatV1.15B25,2013-04-13 04:46:00,
2013-04-13 00:51:00,52.8,37.5,29.72,NNW,339,7.0,14.0,56,0.00,,,0.00,0,WeatherCatV1.15B25,2013-04-13 04:51:00,
2013-04-13 00:56:00,52.6,37.4,29.72,WNW,302,9.0,10.0,56,0.00,,,0.00,0,WeatherCatV1.15B25,2013-04-13 04:56:00,
2013-04-13 01:01:00,52.8,37.5,29.73,NW,308,2.0,11.0,56,0.00,,,0.00,0,WeatherCatV1.15B25,2013-04-13 05:01:00,
2013-04-13 01:06:00,52.6,36.4,29.73,NW,323,3.0,6.0,54,0.00,,,0.00,0,WeatherCatV1.15B25,2013-04-13 05:06:00,
2013-04-13 01:11:00,52.3,35.7,29.73,NNW,340,7.0,17.0,53,0.00,,,0.00,0,WeatherCatV1.15B25,2013-04-13 05:11:00,
2013-04-13 01:16:00,52.2,36.5,29.72,WSW,258,2.0,11.0,55,0.00,,,0.00,0,WeatherCatV1.15B25,2013-04-13 05:16:00,
2013-04-13 01:21:00,52.2,36.1,29.72,WNW,302,3.0,12.0,54,0.00,,,0.00,0,WeatherCatV1.15B25,2013-04-13 05:21:00,
2013-04-13 01:26:00,52.2,35.1,29.72,WNW,291,8.0,12.0,52,0.00,,,0.00,0,WeatherCatV1.15B25,2013-04-13 05:26:00,
2013-04-13 01:31:00,52.2,35.1,29.73,WNW,296,6.0,6.0,52,0.00,,,0.00,0,WeatherCatV1.15B25,2013-04-13 05:31:00,
2013-04-13 01:36:00,52.0,35.4,29.73,West,261,5.0,6.0,53,0.00,,,0.00,0,WeatherCatV1.15B25,2013-04-13 05:36:00,
2013-04-13 01:41:00,52.2,36.1,29.73,NW,326,4.0,18.0,54,0.00,,,0.00,0,WeatherCatV1.15B25,2013-04-13 05:41:00,
2013-04-13 01:46:00,52.0,34.4,29.73,NNE,24,0.0,14.0,51,0.00,,,0.00,0,WeatherCatV1.15B25,2013-04-13 05:46:00,
2013-04-13 01:51:00,51.9,35.3,29.73,NNW,336,0.0,3.0,53,0.00,,,0.00,0,WeatherCatV1.15B25,2013-04-13 05:51:00,
2013-04-13 01:56:00,51.7,35.6,29.73,NNE,24,0.0,7.0,54,0.00,,,0.00,0,WeatherCatV1.15B25,2013-04-13 05:56:00,
2013-04-13 02:01:00,51.7,35.6,29.73,NW,320,6.0,12.0,54,0.00,,,0.00,0,WeatherCatV1.15B25,2013-04-13 06:01:00,
2013-04-13 02:06:00,51.9,34.3,29.73,NW,322,7.0,12.0,51,0.00,,,0.00,0,WeatherCatV1.15B25,2013-04-13 06:06:00,
2013-04-13 02:11:00,51.6,34.6,29.73,NNW,336,10.0,13.0,52,0.00,,,0.00,0,WeatherCatV1.15B25,2013-04-13 06:11:00,
2013-04-13 02:16:00,51.7,35.6,29.73,NNW,339,11.0,17.0,54,0.00,,,0.00,0,WeatherCatV1.15B25,2013-04-13 06:16:00,
2013-04-13 02:22:00,51.4,35.3,29.73,West,267,14.0,14.0,54,0.00,,,0.00,0,WeatherCatV1.15B25,2013-04-13 06:22:00,
2013-04-13 02:27:00,51.4,35.3,29.73,NW,309,3.0,7.0,54,0.00,,,0.00,0,WeatherCatV1.15B25,2013-04-13 06:27:00,
2013-04-13 02:32:00,51.3,34.8,29.73,NNW,330,5.0,5.0,53,0.00,,,0.00,0,WeatherCatV1.15B25,2013-04-13 06:32:00,
2013-04-13 02:37:00,51.7,34.6,29.73,NW,308,7.0,8.0,52,0.00,,,0.00,0,WeatherCatV1.15B25,2013-04-13 06:37:00,
2013-04-13 02:42:00,51.7,34.6,29.73,NW,315,1.0,5.0,52,0.00,,,0.00,0,WeatherCatV1.15B25,2013-04-13 06:42:00,
2013-04-13 02:47:00,51.4,34.8,29.74,West,278,6.0,10.0,53,0.00,,,0.00,0,WeatherCatV1.15B25,2013-04-13 06:47:00,
2013-04-13 02:52:00,51.6,34.1,29.74,NW,306,4.0,9.0,51,0.00,,,0.00,0,WeatherCatV1.15B25,2013-04-13 06:52:00,
2013-04-13 02:57:00,51.6,33.6,29.74,WNW,291,11.0,13.0,50,0.00,,,0.00,0,WeatherCatV1.15B25,2013-04-13 06:57:00,
2013-04-13 03:02:00,51.7,34.2,29.74,WNW,292,0.0,0.0,51,0.00,,,0.00,0,WeatherCatV1.15B25,2013-04-13 07:02:00,
2013-04-13 03:07:00,51.6,34.6,29.74,NNW,337,1.0,6.0,52,0.00,,,0.00,0,WeatherCatV1.15B25,2013-04-13 07:07:00,
2013-04-13 03:12:00,51.6,34.6,29.74,NNW,337,0.0,0.0,52,0.00,,,0.00,0,WeatherCatV1.15B25,2013-04-13 07:12:00,
2013-04-13 03:17:00,51.6,35.0,29.74,NNW,337,0.0,0.0,53,0.00,,,0.00,0,WeatherCatV1.15B25,2013-04-13 07:17:00,
2013-04-13 03:22:00,51.0,35.4,29.74,NNW,337,0.0,0.0,55,0.00,,,0.00,0,WeatherCatV1.15B25,2013-04-13 07:22:00,
2013-04-13 03:27:00,50.8,34.8,29.74,NNW,339,0.0,0.0,54,0.00,,,0.00,0,WeatherCatV1.15B25,2013-04-13 07:27:00,
2013-04-13 03:32:00,50.8,34.8,29.75,NNW,337,2.0,3.0,54,0.00,,,0.00,0,WeatherCatV1.15B25,2013-04-13 07:32:00,
2013-04-13 03:37:00,50.8,35.2,29.75,NNW,337,2.0,3.0,55,0.00,,,0.00,0,WeatherCatV1.15B25,2013-04-13 07:37:00,
2013-04-13 03:42:00,50.8,34.8,29.75,NNW,337,0.0,1.0,54,0.00,,,0.00,0,WeatherCatV1.15B25,2013-04-13 07:42:00,
2013-04-13 03:47:00,51.0,35.9,29.75,NNW,337,0.0,2.0,56,0.00,,,0.00,0,WeatherCatV1.15B25,2013-04-13 07:47:00,
2013-04-13 03:52:00,51.1,36.4,29.75,NNW,337,0.0,0.0,57,0.00,,,0.00,0,WeatherCatV1.15B25,2013-04-13 07:52:00,
2013-04-13 03:57:00,51.1,36.8,29.75,NNW,337,0.0,0.0,58,0.00,,,0.00,0,WeatherCatV1.15B25,2013-04-13 07:57:00,
2013-04-13 04:02:00,50.7,37.3,29.75,NNW,337,0.0,0.0,60,0.00,,,0.00,0,WeatherCatV1.15B25,2013-04-13 08:02:00,
2013-04-13 04:07:00,50.4,36.2,29.75,NNW,337,0.0,0.0,58,0.00,,,0.00,0,WeatherCatV1.15B25,2013-04-13 08:07:00,
2013-04-13 04:12:00,50.2,37.7,29.75,NNW,337,1.0,3.0,62,0.00,,,0.00,0,WeatherCatV1.15B25,2013-04-13 08:12:00,
2013-04-13 04:17:00,50.2,37.3,29.75,NNW,337,0.0,3.0,61,0.00,,,0.00,0,WeatherCatV1.15B25,2013-04-13 08:17:00,
2013-04-13 04:22:00,50.1,36.8,29.75,NNW,337,0.0,0.0,60,0.00,,,0.00,0,WeatherCatV1.15B25,2013-04-13 08:22:00,
2013-04-13 04:27:00,49.8,36.9,29.75,NNW,337,0.0,0.0,61,0.00,,,0.00,0,WeatherCatV1.15B25,2013-04-13 08:27:00,
2013-04-13 04:32:00,49.6,37.1,29.76,NNW,337,0.0,0.0,62,0.00,,,0.00,0,WeatherCatV1.15B25,2013-04-13 08:32:00,
2013-04-13 04:37:00,49.6,37.9,29.76,NNW,337,0.0,0.0,64,0.00,,,0.00,0,WeatherCatV1.15B25,2013-04-13 08:37:00,
2013-04-13 04:42:00,49.4,38.5,29.76,NNW,337,0.0,0.0,66,0.00,,,0.00,0,WeatherCatV1.15B25,2013-04-13 08:42:00,
2013-04-13 04:47:00,49.2,37.5,29.76,NNW,337,0.0,0.0,64,0.00,,,0.00,0,WeatherCatV1.15B25,2013-04-13 08:47:00,
2013-04-13 04:52:00,49.2,36.3,29.76,WNW,301,0.0,2.0,61,0.00,,,0.00,0,WeatherCatV1.15B25,2013-04-13 08:52:00,
2013-04-13 04:57:00,49.1,36.6,29.76,WNW,301,0.0,0.0,62,0.00,,,0.00,0,WeatherCatV1.15B25,2013-04-13 08:57:00,
2013-04-13 05:02:00,49.1,38.2,29.77,WNW,301,0.0,0.0,66,0.00,,,0.00,0,WeatherCatV1.15B25,2013-04-13 09:02:00,
2013-04-13 05:08:00,48.9,37.3,29.77,WNW,301,0.0,0.0,64,0.00,,,0.00,0,WeatherCatV1.15B25,2013-04-13 09:08:00,
2013-04-13 05:13:00,48.6,37.8,29.77,WNW,301,0.0,0.0,66,0.00,,,0.00,0,WeatherCatV1.15B25,2013-04-13 09:13:00,
2013-04-13 05:18:00,48.2,38.1,29.77,WNW,301,0.0,0.0,68,0.00,,,0.00,0,WeatherCatV1.15B25,2013-04-13 09:18:00,
2013-04-13 05:23:00,47.4,37.4,29.77,WNW,301,0.0,0.0,68,0.00,,,0.00,0,WeatherCatV1.15B25,2013-04-13 09:23:00,
2013-04-13 05:28:00,47.0,38.1,29.77,WNW,301,0.0,0.0,71,0.00,,,0.00,0,WeatherCatV1.15B25,2013-04-13 09:28:00,
2013-04-13 05:33:00,45.8,38.7,29.78,WNW,301,0.0,3.0,76,0.00,,,0.00,0,WeatherCatV1.15B25,2013-04-13 09:33:00,
2013-04-13 05:38:00,45.4,38.6,29.78,WNW,299,0.0,0.0,77,0.00,,,0.00,0,WeatherCatV1.15B25,2013-04-13 09:38:00,
2013-04-13 05:43:00,45.7,37.9,29.78,West,281,1.0,6.0,74,0.00,,,0.00,0,WeatherCatV1.15B25,2013-04-13 09:43:00,
2013-04-13 05:48:00,45.8,38.0,29.78,NW,325,0.0,0.0,74,0.00,,,0.00,0,WeatherCatV1.15B25,2013-04-13 09:48:00,
2013-04-13 05:53:00,46.1,37.9,29.78,NNW,330,1.0,6.0,73,0.00,,,0.00,0,WeatherCatV1.15B25,2013-04-13 09:53:00,
2013-04-13 05:58:00,46.4,37.5,29.78,NNW,335,0.0,0.0,71,0.00,,,0.00,0,WeatherCatV1.15B25,2013-04-13 09:58:00,
2013-04-13 06:03:00,46.5,37.6,29.79,NNW,335,0.0,0.0,71,0.00,,,0.00,0,WeatherCatV1.15B25,2013-04-13 10:03:00,
2013-04-13 06:08:00,46.8,37.2,29.79,NNW,335,0.0,0.0,69,0.00,,,0.00,0,WeatherCatV1.15B25,2013-04-13 10:08:00,
2013-04-13 06:13:00,47.6,37.2,29.79,NNW,335,0.0,0.0,67,0.00,,,0.00,0,WeatherCatV1.15B25,2013-04-13 10:13:00,
2013-04-13 06:18:00,48.3,36.3,29.79,NNW,335,0.0,0.0,63,0.00,,,0.00,0,WeatherCatV1.15B25,2013-04-13 10:18:00,
2013-04-13 06:23:00,49.1,36.6,29.79,NNW,335,0.0,0.0,62,0.00,,,0.00,0,WeatherCatV1.15B25,2013-04-13 10:23:00,
2013-04-13 06:28:00,49.5,36.2,29.79,NNW,335,2.0,5.0,60,0.00,,,0.00,0,WeatherCatV1.15B25,2013-04-13 10:28:00,
2013-04-13 06:33:00,49.6,36.7,29.80,NNW,335,0.0,0.0,61,0.00,,,0.00,0,WeatherCatV1.15B25,2013-04-13 10:33:00,
2013-04-13 06:38:00,49.9,35.7,29.80,West,274,6.0,8.0,58,0.00,,,0.00,7,WeatherCatV1.15B25,2013-04-13 10:38:00,
2013-04-13 06:43:00,50.2,35.1,29.80,NW,318,6.0,8.0,56,0.00,,,0.00,11,WeatherCatV1.15B25,2013-04-13 10:43:00,
2013-04-13 06:48:00,50.4,36.2,29.80,NW,326,2.0,7.0,58,0.00,,,0.00,14,WeatherCatV1.15B25,2013-04-13 10:48:00,
2013-04-13 06:53:00,50.2,34.7,29.80,NNW,342,3.0,12.0,55,0.00,,,0.00,21,WeatherCatV1.15B25,2013-04-13 10:53:00,
2013-04-13 06:58:00,50.5,34.9,29.80,WNW,288,3.0,8.0,55,0.00,,,0.00,26,WeatherCatV1.15B25,2013-04-13 10:58:00,
2013-04-13 07:03:00,50.7,35.1,29.80,North,352,11.0,13.0,55,0.00,,,0.00,28,WeatherCatV1.15B25,2013-04-13 11:03:00,
2013-04-13 07:08:00,50.5,35.4,29.80,NW,322,5.0,14.0,56,0.00,,,0.00,30,WeatherCatV1.15B25,2013-04-13 11:08:00,
2013-04-13 07:13:00,50.7,35.1,29.80,NW,323,8.0,10.0,55,0.00,,,0.00,70,WeatherCatV1.15B25,2013-04-13 11:13:00,
2013-04-13 07:18:00,50.7,35.1,29.82,WNW,301,6.0,10.0,55,0.00,,,0.00,86,WeatherCatV1.15B25,2013-04-13 11:18:00,
2013-04-13 07:23:00,50.8,34.3,29.82,WNW,295,0.0,10.0,53,0.00,,,0.00,95,WeatherCatV1.15B25,2013-04-13 11:23:00,
2013-04-13 07:28:00,50.8,34.8,29.82,WNW,289,7.0,11.0,54,0.00,,,0.00,109,WeatherCatV1.15B25,2013-04-13 11:28:00,
2013-04-13 07:33:00,51.1,35.5,29.82,WNW,299,7.0,12.0,55,0.00,,,0.00,125,WeatherCatV1.15B25,2013-04-13 11:33:00,
2013-04-13 07:38:00,51.3,35.7,29.82,NW,308,6.0,10.0,55,0.00,,,0.00,137,WeatherCatV1.15B25,2013-04-13 11:38:00,
2013-04-13 07:43:00,51.4,35.3,29.82,NW,309,7.0,10.0,54,0.00,,,0.00,155,WeatherCatV1.15B25,2013-04-13 11:43:00,
2013-04-13 07:48:00,51.7,35.1,29.82,NW,306,10.0,10.0,53,0.00,,,0.00,174,WeatherCatV1.15B25,2013-04-13 11:48:00,
2013-04-13 07:53:00,51.7,35.1,29.82,WNW,291,0.0,12.0,53,0.00,,,0.00,192,WeatherCatV1.15B25,2013-04-13 11:53:00,
2013-04-13 07:58:00,52.2,35.6,29.82,WNW,301,3.0,5.0,53,0.00,,,0.00,209,WeatherCatV1.15B25,2013-04-13 11:58:00,
2013-04-13 08:03:00,52.0,35.4,29.83,West,280,2.0,3.0,53,0.00,,,0.00,227,WeatherCatV1.15B25,2013-04-13 12:03:00,
2013-04-13 08:08:00,51.9,34.8,29.83,WNW,284,2.0,7.0,52,0.00,,,0.00,250,WeatherCatV1.15B25,2013-04-13 12:08:00,
2013-04-13 08:13:00,52.0,35.4,29.83,NW,326,8.0,12.0,53,0.00,,,0.00,252,WeatherCatV1.15B25,2013-04-13 12:13:00,
2013-04-13 08:18:00,52.2,35.6,29.84,WNW,288,6.0,6.0,53,0.00,,,0.00,266,WeatherCatV1.15B25,2013-04-13 12:18:00,
2013-04-13 08:23:00,52.3,35.7,29.84,NW,320,6.0,10.0,53,0.00,,,0.00,280,WeatherCatV1.15B25,2013-04-13 12:23:00,
2013-04-13 08:28:00,52.5,35.4,29.84,NW,322,5.0,6.0,52,0.00,,,0.00,301,WeatherCatV1.15B25,2013-04-13 12:28:00,
2013-04-13 08:33:00,52.5,35.4,29.85,WNW,301,2.0,14.0,52,0.00,,,0.00,318,WeatherCatV1.15B25,2013-04-13 12:33:00,
2013-04-13 08:38:00,52.3,36.2,29.85,WNW,287,10.0,13.0,54,0.00,,,0.00,334,WeatherCatV1.15B25,2013-04-13 12:38:00,
2013-04-13 08:43:00,52.6,36.4,29.85,NNE,24,6.0,7.0,54,0.00,,,0.00,348,WeatherCatV1.15B25,2013-04-13 12:43:00,
2013-04-13 08:48:00,52.3,35.2,29.85,West,261,7.0,12.0,52,0.00,,,0.00,371,WeatherCatV1.15B25,2013-04-13 12:48:00,
2013-04-13 08:53:00,52.3,34.7,29.85,NNW,335,8.0,10.0,51,0.00,,,0.00,377,WeatherCatV1.15B25,2013-04-13 12:53:00,
2013-04-13 08:58:00,52.5,35.9,29.85,WNW,282,10.0,10.0,53,0.00,,,0.00,405,WeatherCatV1.15B25,2013-04-13 12:58:00,
2013-04-13 09:03:00,53.1,35.5,29.85,WNW,302,0.0,4.0,51,0.00,,,0.00,417,WeatherCatV1.15B25,2013-04-13 13:03:00,
2013-04-13 09:08:00,53.1,34.4,29.85,WNW,298,0.0,12.0,49,0.00,,,0.00,449,WeatherCatV1.15B25,2013-04-13 13:08:00,
2013-04-13 09:13:00,52.9,35.3,29.85,West,277,5.0,5.0,51,0.00,,,0.00,480,WeatherCatV1.15B25,2013-04-13 13:13:00,
2013-04-13 09:18:00,53.2,34.5,29.85,West,278,5.0,9.0,49,0.00,,,0.00,482,WeatherCatV1.15B25,2013-04-13 13:18:00,
2013-04-13 09:23:00,53.1,33.4,29.85,North,359,7.0,8.0,47,0.00,,,0.00,97,WeatherCatV1.15B25,2013-04-13 13:23:00,
2013-04-13 09:28:00,52.9,32.7,29.85,NW,323,5.0,12.0,46,0.00,,,0.00,493,WeatherCatV1.15B25,2013-04-13 13:28:00,
2013-04-13 09:33:00,52.8,33.7,29.86,WNW,284,5.0,10.0,48,0.00,,,0.00,512,WeatherCatV1.15B25,2013-04-13 13:33:00,
2013-04-13 09:38:00,52.9,32.7,29.86,West,264,8.0,9.0,46,0.00,,,0.00,521,WeatherCatV1.15B25,2013-04-13 13:38:00,
2013-04-13 09:43:00,52.5,33.4,29.86,West,281,12.0,14.0,48,0.00,,,0.00,530,WeatherCatV1.15B25,2013-04-13 13:43:00,
2013-04-13 09:48:00,52.6,33.0,29.86,WNW,296,6.0,11.0,47,0.00,,,0.00,542,WeatherCatV1.15B25,2013-04-13 13:48:00,
2013-04-13 09:53:00,52.3,31.6,29.86,NNW,339,10.0,10.0,45,0.00,,,0.00,549,WeatherCatV1.15B25,2013-04-13 13:53:00,
2013-04-13 09:58:00,52.6,30.7,29.86,West,265,13.0,14.0,43,0.00,,,0.00,574,WeatherCatV1.15B25,2013-04-13 13:58:00,
2013-04-13 10:03:00,52.9,33.2,29.86,WNW,294,6.0,11.0,47,0.00,,,0.00,588,WeatherCatV1.15B25,2013-04-13 14:03:00,
2013-04-13 10:08:00,53.5,33.2,29.86,WSW,258,3.0,7.0,46,0.00,,,0.00,604,WeatherCatV1.15B25,2013-04-13 14:08:00,
2013-04-13 10:13:00,54.4,32.9,29.86,WSW,253,7.0,14.0,44,0.00,,,0.00,616,WeatherCatV1.15B25,2013-04-13 14:13:00,
2013-04-13 10:18:00,53.9,31.9,29.86,NW,313,3.0,7.0,43,0.00,,,0.00,630,WeatherCatV1.15B25,2013-04-13 14:18:00,
2013-04-13 10:23:00,53.6,33.3,29.86,NW,313,5.0,7.0,46,0.00,,,0.00,640,WeatherCatV1.15B25,2013-04-13 14:23:00,
2013-04-13 10:28:00,54.2,32.2,29.86,WSW,251,11.0,13.0,43,0.00,,,0.00,655,WeatherCatV1.15B25,2013-04-13 14:28:00,
2013-04-13 10:33:00,53.9,31.9,29.86,West,260,6.0,7.0,43,0.00,,,0.00,665,WeatherCatV1.15B25,2013-04-13 14:33:00,
2013-04-13 10:38:00,54.7,32.1,29.86,WSW,244,2.0,11.0,42,0.00,,,0.00,691,WeatherCatV1.15B25,2013-04-13 14:38:00,
2013-04-13 10:43:00,54.5,31.9,29.86,WNW,298,10.0,20.0,42,0.00,,,0.00,695,WeatherCatV1.15B25,2013-04-13 14:43:00,
2013-04-13 10:48:00,54.4,32.9,29.86,NW,318,0.0,16.0,44,0.00,,,0.00,707,WeatherCatV1.15B25,2013-04-13 14:48:00,
2013-04-13 10:53:00,54.1,31.5,29.86,NNE,14,3.0,12.0,42,0.00,,,0.00,743,WeatherCatV1.15B25,2013-04-13 14:53:00,
2013-04-13 10:58:00,54.2,31.0,29.86,WSW,257,8.0,13.0,41,0.00,,,0.00,808,WeatherCatV1.15B25,2013-04-13 14:58:00,
2013-04-13 11:03:00,53.6,31.7,29.86,WNW,299,11.0,14.0,43,0.00,,,0.00,183,WeatherCatV1.15B25,2013-04-13 15:03:00,
2013-04-13 11:08:00,53.6,32.2,29.86,West,267,2.0,8.0,44,0.00,,,0.00,209,WeatherCatV1.15B25,2013-04-13 15:08:00,
2013-04-13 11:13:00,53.9,30.7,29.86,West,274,13.0,18.0,41,0.00,,,0.00,897,WeatherCatV1.15B25,2013-04-13 15:13:00,
2013-04-13 11:18:00,54.4,31.8,29.86,WNW,292,2.0,10.0,42,0.00,,,0.00,897,WeatherCatV1.15B25,2013-04-13 15:18:00,
2013-04-13 11:23:00,55.6,33.5,29.86,WSW,243,7.0,12.0,43,0.00,,,0.00,931,WeatherCatV1.15B25,2013-04-13 15:23:00,
2013-04-13 11:28:00,55.6,32.3,29.86,WSW,244,0.0,11.0,41,0.00,,,0.00,333,WeatherCatV1.15B25,2013-04-13 15:28:00,
2013-04-13 11:33:00,56.3,33.5,29.86,WNW,284,7.0,8.0,42,0.00,,,0.00,259,WeatherCatV1.15B25,2013-04-13 15:33:00,
2013-04-13 11:38:00,57.3,33.2,29.86,WSW,239,7.0,7.0,40,0.00,,,0.00,1019,WeatherCatV1.15B25,2013-04-13 15:38:00,
2013-04-13 11:43:00,56.5,31.8,29.86,WSW,258,8.0,13.0,39,0.00,,,0.00,357,WeatherCatV1.15B25,2013-04-13 15:43:00,
2013-04-13 11:48:00,56.7,32.0,29.86,WNW,284,5.0,8.0,39,0.00,,,0.00,894,WeatherCatV1.15B25,2013-04-13 15:48:00,
2013-04-13 11:53:00,56.2,31.6,29.86,WSW,239,7.0,14.0,39,0.00,,,0.00,929,WeatherCatV1.15B25,2013-04-13 15:53:00,
2013-04-13 11:58:00,56.5,31.2,29.86,WNW,295,11.0,14.0,38,0.00,,,0.00,920,WeatherCatV1.15B25,2013-04-13 15:58:00,
2013-04-13 12:03:00,56.7,32.7,29.85,NNW,328,5.0,12.0,40,0.00,,,0.00,871,WeatherCatV1.15B25,2013-04-13 16:03:00,
2013-04-13 12:08:00,58.0,31.2,29.85,SSW,195,2.0,14.0,36,0.00,,,0.00,889,WeatherCatV1.15B25,2013-04-13 16:08:00,
2013-04-13 12:13:00,57.6,32.2,29.85,West,275,5.0,14.0,38,0.00,,,0.00,918,WeatherCatV1.15B25,2013-04-13 16:13:00,
2013-04-13 12:18:00,57.6,31.5,29.85,WSW,257,5.0,20.0,37,0.00,,,0.00,897,WeatherCatV1.15B25,2013-04-13 16:18:00,
2013-04-13 12:23:00,58.9,35.8,29.85,SW,236,10.0,14.0,42,0.00,,,0.00,873,WeatherCatV1.15B25,2013-04-13 16:23:00,
2013-04-13 12:28:00,59.3,33.7,29.85,SW,227,8.0,17.0,38,0.00,,,0.00,887,WeatherCatV1.15B25,2013-04-13 16:28:00,
2013-04-13 12:33:00,59.3,33.0,29.84,WSW,240,10.0,11.0,37,0.00,,,0.00,894,WeatherCatV1.15B25,2013-04-13 16:33:00,
2013-04-13 12:38:00,59.2,31.6,29.84,WSW,250,5.0,7.0,35,0.00,,,0.00,896,WeatherCatV1.15B25,2013-04-13 16:38:00,
2013-04-13 12:43:00,60.1,34.4,29.84,West,264,7.0,11.0,38,0.00,,,0.00,915,WeatherCatV1.15B25,2013-04-13 16:43:00,
2013-04-13 12:48:00,58.9,33.3,29.83,West,274,16.0,18.0,38,0.00,,,0.00,922,WeatherCatV1.15B25,2013-04-13 16:48:00,
2013-04-13 12:53:00,59.3,33.7,29.83,SW,223,8.0,12.0,38,0.00,,,0.00,880,WeatherCatV1.15B25,2013-04-13 16:53:00,
2013-04-13 12:58:00,60.1,33.1,29.83,WNW,287,6.0,11.0,36,0.00,,,0.00,929,WeatherCatV1.15B25,2013-04-13 16:58:00,
2013-04-13 13:03:00,59.5,33.9,29.83,SW,234,9.0,19.0,38,0.00,,,0.00,869,WeatherCatV1.15B25,2013-04-13 17:03:00,
2013-04-13 13:08:00,59.8,33.5,29.83,WNW,298,6.0,12.0,37,0.00,,,0.00,871,WeatherCatV1.15B25,2013-04-13 17:08:00,
2013-04-13 13:13:00,59.9,33.6,29.83,WSW,248,4.0,7.0,37,0.00,,,0.00,795,WeatherCatV1.15B25,2013-04-13 17:13:00,
2013-04-13 13:18:00,59.8,34.1,29.83,West,278,7.0,18.0,38,0.00,,,0.00,887,WeatherCatV1.15B25,2013-04-13 17:18:00,
2013-04-13 13:23:00,59.5,34.5,29.83,West,278,12.0,16.0,39,0.00,,,0.00,911,WeatherCatV1.15B25,2013-04-13 17:23:00,
2013-04-13 13:28:00,59.9,32.9,29.83,WSW,246,8.0,17.0,36,0.00,,,0.00,882,WeatherCatV1.15B25,2013-04-13 17:28:00,
2013-04-13 13:33:00,61.8,33.9,29.82,SW,234,6.0,9.0,35,0.00,,,0.00,897,WeatherCatV1.15B25,2013-04-13 17:33:00,
2013-04-13 13:38:00,61.3,32.7,29.82,NW,308,8.0,16.0,34,0.00,,,0.00,869,WeatherCatV1.15B25,2013-04-13 17:38:00,
2013-04-13 13:43:00,61.3,34.1,29.82,SSW,195,1.0,10.0,36,0.00,,,0.00,838,WeatherCatV1.15B25,2013-04-13 17:43:00,
2013-04-13 13:48:00,63.1,35.0,29.81,West,261,7.0,14.0,35,0.00,,,0.00,843,WeatherCatV1.15B25,2013-04-13 17:48:00,
2013-04-13 13:53:00,63.1,34.3,29.81,SSW,200,9.0,12.0,34,0.00,,,0.00,841,WeatherCatV1.15B25,2013-04-13 17:53:00,
2013-04-13 13:58:00,62.7,34.7,29.81,SSW,213,11.0,14.0,35,0.00,,,0.00,834,WeatherCatV1.15B25,2013-04-13 17:58:00,
2013-04-13 14:03:00,63.1,35.7,29.80,South,179,10.0,12.0,36,0.00,,,0.00,836,WeatherCatV1.15B25,2013-04-13 18:03:00,
2013-04-13 14:08:00,63.7,34.8,29.80,SW,224,18.0,18.0,34,0.00,,,0.00,823,WeatherCatV1.15B25,2013-04-13 18:08:00,
2013-04-13 14:13:00,63.4,36.0,29.80,WSW,240,12.0,18.0,36,0.00,,,0.00,816,WeatherCatV1.15B25,2013-04-13 18:13:00,
2013-04-13 14:18:00,63.9,35.7,29.80,WSW,246,6.0,12.0,35,0.00,,,0.00,815,WeatherCatV1.15B25,2013-04-13 18:18:00,
2013-04-13 14:23:00,62.1,32.7,29.80,WSW,256,12.0,17.0,33,0.00,,,0.00,811,WeatherCatV1.15B25,2013-04-13 18:23:00,
2013-04-13 14:27:00,61.8,33.9,29.80,WNW,301,13.0,19.0,35,0.00,,,0.00,802,WeatherCatV1.15B25,2013-04-13 18:27:00,
2013-04-13 14:32:00,62.6,33.1,29.80,WSW,244,7.0,14.0,33,0.00,,,0.00,797,WeatherCatV1.15B25,2013-04-13 18:32:00,
2013-04-13 14:37:00,62.6,33.1,29.80,WSW,258,12.0,18.0,33,0.00,,,0.00,783,WeatherCatV1.15B25,2013-04-13 18:37:00,
2013-04-13 14:41:00,62.7,33.9,29.80,WSW,246,2.0,13.0,34,0.00,,,0.00,779,WeatherCatV1.15B25,2013-04-13 18:41:00,
2013-04-13 14:46:00,63.7,34.8,29.79,WSW,258,5.0,9.0,34,0.00,,,0.00,772,WeatherCatV1.15B25,2013-04-13 18:46:00,
2013-04-13 14:51:00,64.8,34.2,29.79,WSW,251,6.0,11.0,32,0.00,,,0.00,772,WeatherCatV1.15B25,2013-04-13 18:51:00,
2013-04-13 14:57:00,65.2,36.1,29.79,SW,224,12.0,13.0,34,0.00,,,0.00,758,WeatherCatV1.15B25,2013-04-13 18:57:00,
2013-04-13 15:02:00,64.8,35.0,29.78,SW,233,3.0,10.0,33,0.00,,,0.00,753,WeatherCatV1.15B25,2013-04-13 19:02:00,
2013-04-13 15:07:00,64.7,36.4,29.78,West,261,7.0,25.0,35,0.00,,,0.00,743,WeatherCatV1.15B25,2013-04-13 19:07:00,
2013-04-13 15:12:00,64.3,34.6,29.78,West,260,13.0,17.0,33,0.00,,,0.00,730,WeatherCatV1.15B25,2013-04-13 19:12:00,
2013-04-13 15:17:00,64.8,35.0,29.78,WSW,239,6.0,10.0,33,0.00,,,0.00,723,WeatherCatV1.15B25,2013-04-13 19:17:00,
2013-04-13 15:22:00,64.8,36.5,29.78,West,274,5.0,14.0,35,0.00,,,0.00,711,WeatherCatV1.15B25,2013-04-13 19:22:00,
2013-04-13 15:27:00,65.2,36.1,29.78,WSW,244,5.0,10.0,34,0.00,,,0.00,702,WeatherCatV1.15B25,2013-04-13 19:27:00,
2013-04-13 15:32:00,64.7,35.7,29.78,West,280,6.0,17.0,34,0.00,,,0.00,691,WeatherCatV1.15B25,2013-04-13 19:32:00,
2013-04-13 15:37:00,64.7,35.7,29.78,WSW,254,14.0,14.0,34,0.00,,,0.00,679,WeatherCatV1.15B25,2013-04-13 19:37:00,
2013-04-13 15:42:00,65.5,36.4,29.78,WSW,253,3.0,10.0,34,0.00,,,0.00,677,WeatherCatV1.15B25,2013-04-13 19:42:00,
2013-04-13 15:47:00,66.0,35.3,29.77,SSW,202,8.0,8.0,32,0.00,,,0.00,681,WeatherCatV1.15B25,2013-04-13 19:47:00,
2013-04-13 15:52:00,66.1,35.4,29.77,South,189,7.0,16.0,32,0.00,,,0.00,662,WeatherCatV1.15B25,2013-04-13 19:52:00,
2013-04-13 15:57:00,66.0,35.3,29.77,SSW,206,5.0,16.0,32,0.00,,,0.00,660,WeatherCatV1.15B25,2013-04-13 19:57:00,
2013-04-13 16:02:00,65.6,35.7,29.77,WSW,241,12.0,14.0,33,0.00,,,0.00,598,WeatherCatV1.15B25,2013-04-13 20:02:00,
2013-04-13 16:07:00,66.6,34.2,29.77,South,181,3.0,11.0,30,0.00,,,0.00,623,WeatherCatV1.15B25,2013-04-13 20:07:00,
2013-04-13 16:12:00,66.8,35.2,29.77,SW,230,4.0,6.0,31,0.00,,,0.00,635,WeatherCatV1.15B25,2013-04-13 20:12:00,
2013-04-13 16:17:00,67.4,38.1,29.77,SSW,212,6.0,12.0,34,0.00,,,0.00,612,WeatherCatV1.15B25,2013-04-13 20:17:00,
2013-04-13 16:22:00,67.1,35.4,29.77,SSW,205,10.0,14.0,31,0.00,,,0.00,591,WeatherCatV1.15B25,2013-04-13 20:22:00,
2013-04-13 16:27:00,67.6,34.2,29.77,WSW,251,0.0,8.0,29,0.00,,,0.00,572,WeatherCatV1.15B25,2013-04-13 20:27:00,
2013-04-13 16:32:00,68.1,34.6,29.76,WSW,237,0.0,2.0,29,0.00,,,0.00,551,WeatherCatV1.15B25,2013-04-13 20:32:00,
2013-04-13 16:37:00,67.9,35.3,29.76,SW,220,7.0,11.0,30,0.00,,,0.00,538,WeatherCatV1.15B25,2013-04-13 20:37:00,
2013-04-13 16:42:00,67.4,33.2,29.76,WSW,240,5.0,10.0,28,0.00,,,0.00,523,WeatherCatV1.15B25,2013-04-13 20:42:00,
2013-04-13 16:47:00,67.4,35.7,29.75,SSW,202,1.0,6.0,31,0.00,,,0.00,505,WeatherCatV1.15B25,2013-04-13 20:47:00,
2013-04-13 16:52:00,68.4,35.7,29.75,SSW,196,8.0,14.0,30,0.00,,,0.00,494,WeatherCatV1.15B25,2013-04-13 20:52:00,
2013-04-13 16:57:00,67.9,35.3,29.75,South,182,2.0,7.0,30,0.00,,,0.00,479,WeatherCatV1.15B25,2013-04-13 20:57:00,
2013-04-13 17:02:00,67.6,35.1,29.75,South,175,6.0,11.0,30,0.00,,,0.00,465,WeatherCatV1.15B25,2013-04-13 21:02:00,
2013-04-13 17:07:00,67.9,35.3,29.75,SW,233,10.0,10.0,30,0.00,,,0.00,450,WeatherCatV1.15B25,2013-04-13 21:07:00,
2013-04-13 17:12:00,67.9,36.1,29.75,SSW,209,4.0,9.0,31,0.00,,,0.00,431,WeatherCatV1.15B25,2013-04-13 21:12:00,
2013-04-13 17:17:00,67.9,34.5,29.75,SW,215,1.0,17.0,29,0.00,,,0.00,415,WeatherCatV1.15B25,2013-04-13 21:17:00,
2013-04-13 17:22:00,67.9,36.1,29.75,SSW,205,6.0,6.0,31,0.00,,,0.00,401,WeatherCatV1.15B25,2013-04-13 21:22:00,
2013-04-13 17:27:00,67.8,33.5,29.75,SW,227,6.0,13.0,28,0.00,,,0.00,384,WeatherCatV1.15B25,2013-04-13 21:27:00,
2013-04-13 17:32:00,68.3,35.7,29.75,SSW,212,0.0,12.0,30,0.00,,,0.00,366,WeatherCatV1.15B25,2013-04-13 21:32:00,
2013-04-13 17:37:00,67.3,33.1,29.75,SSW,193,4.0,12.0,28,0.00,,,0.00,93,WeatherCatV1.15B25,2013-04-13 21:37:00,
2013-04-13 17:42:00,67.4,35.7,29.75,SSW,213,3.0,6.0,31,0.00,,,0.00,340,WeatherCatV1.15B25,2013-04-13 21:42:00,
2013-04-13 17:47:00,68.1,34.6,29.75,WSW,237,6.0,10.0,29,0.00,,,0.00,318,WeatherCatV1.15B25,2013-04-13 21:47:00,
2013-04-13 17:52:00,68.1,33.8,29.75,WSW,243,3.0,6.0,28,0.00,,,0.00,304,WeatherCatV1.15B25,2013-04-13 21:52:00,
2013-04-13 17:57:00,68.4,35.7,29.75,SSW,195,7.0,8.0,30,0.00,,,0.00,287,WeatherCatV1.15B25,2013-04-13 21:57:00,
2013-04-13 18:02:00,68.1,36.3,29.75,SW,229,3.0,7.0,31,0.00,,,0.00,271,WeatherCatV1.15B25,2013-04-13 22:02:00,
2013-04-13 18:07:00,67.4,33.2,29.75,SW,232,5.0,10.0,28,0.00,,,0.00,255,WeatherCatV1.15B25,2013-04-13 22:07:00,
2013-04-13 18:12:00,67.6,35.9,29.75,SW,216,3.0,6.0,31,0.00,,,0.00,238,WeatherCatV1.15B25,2013-04-13 22:12:00,
2013-04-13 18:17:00,68.3,34.8,29.75,WSW,237,0.0,2.0,29,0.00,,,0.00,223,WeatherCatV1.15B25,2013-04-13 22:17:00,
2013-04-13 18:22:00,68.9,34.4,29.75,SSW,202,1.0,5.0,28,0.00,,,0.00,204,WeatherCatV1.15B25,2013-04-13 22:22:00,
2013-04-13 18:27:00,68.9,34.4,29.75,SSW,210,0.0,7.0,28,0.00,,,0.00,188,WeatherCatV1.15B25,2013-04-13 22:27:00,
2013-04-13 18:32:00,69.3,34.8,29.75,SW,236,2.0,5.0,28,0.00,,,0.00,174,WeatherCatV1.15B25,2013-04-13 22:32:00,
2013-04-13 18:37:00,68.8,34.4,29.75,SSW,205,6.0,8.0,28,0.00,,,0.00,158,WeatherCatV1.15B25,2013-04-13 22:37:00,
2013-04-13 18:42:00,68.8,35.2,29.75,SSW,202,2.0,3.0,29,0.00,,,0.00,144,WeatherCatV1.15B25,2013-04-13 22:42:00,
2013-04-13 18:47:00,68.9,34.4,29.75,SW,224,3.0,4.0,28,0.00,,,0.00,134,WeatherCatV1.15B25,2013-04-13 22:47:00,
2013-04-13 18:52:00,69.1,33.7,29.75,SW,223,1.0,3.0,27,0.00,,,0.00,118,WeatherCatV1.15B25,2013-04-13 22:52:00,
2013-04-13 18:57:00,68.8,35.2,29.75,SW,222,2.0,3.0,29,0.00,,,0.00,107,WeatherCatV1.15B25,2013-04-13 22:57:00,
2013-04-13 19:02:00,68.4,34.9,29.76,SW,220,0.0,3.0,29,0.00,,,0.00,91,WeatherCatV1.15B25,2013-04-13 23:02:00,
2013-04-13 19:07:00,68.9,34.4,29.76,SW,220,0.0,0.0,28,0.00,,,0.00,77,WeatherCatV1.15B25,2013-04-13 23:07:00,
2013-04-13 19:12:00,69.4,34.9,29.76,SW,220,0.0,0.0,28,0.00,,,0.00,63,WeatherCatV1.15B25,2013-04-13 23:12:00,
2013-04-13 19:17:00,69.8,34.3,29.76,SW,220,0.0,0.0,27,0.00,,,0.00,51,WeatherCatV1.15B25,2013-04-13 23:17:00,
2013-04-13 19:23:00,69.4,34.9,29.76,SW,220,0.0,0.0,28,0.00,,,0.00,19,WeatherCatV1.15B25,2013-04-13 23:23:00,
2013-04-13 19:28:00,69.3,35.7,29.76,SW,220,0.0,0.0,29,0.00,,,0.00,18,WeatherCatV1.15B25,2013-04-13 23:28:00,
2013-04-13 19:33:00,68.6,36.8,29.76,SW,220,0.0,0.0,31,0.00,,,0.00,14,WeatherCatV1.15B25,2013-04-13 23:33:00,
2013-04-13 19:38:00,67.8,40.6,29.76,SW,220,0.0,0.0,37,0.00,,,0.00,12,WeatherCatV1.15B25,2013-04-13 23:38:00,
2013-04-13 19:43:00,65.6,40.0,29.76,SW,220,0.0,0.0,39,0.00,,,0.00,11,WeatherCatV1.15B25,2013-04-13 23:43:00,
2013-04-13 19:48:00,64.3,41.3,29.77,SW,220,0.0,0.0,43,0.00,,,0.00,7,WeatherCatV1.15B25,2013-04-13 23:48:00,
2013-04-13 19:53:00,62.7,39.3,29.77,SW,220,0.0,0.0,42,0.00,,,0.00,5,WeatherCatV1.15B25,2013-04-13 23:53:00,
2013-04-13 19:58:00,61.8,41.9,29.77,SW,220,0.0,0.0,48,0.00,,,0.00,0,WeatherCatV1.15B25,2013-04-13 23:58:00,
2013-04-13 20:03:00,60.4,42.2,29.78,SW,222,0.0,0.0,51,0.00,,,0.00,0,WeatherCatV1.15B25,2013-04-14 00:03:00,
2013-04-13 20:08:00,59.9,41.2,29.78,SW,222,0.0,0.0,50,0.00,,,0.00,0,WeatherCatV1.15B25,2013-04-14 00:08:00,
2013-04-13 20:13:00,58.4,39.8,29.78,WNW,284,2.0,5.0,50,0.00,,,0.00,0,WeatherCatV1.15B25,2013-04-14 00:13:00,
2013-04-13 20:18:00,58.0,38.9,29.79,WNW,284,0.0,0.0,49,0.00,,,0.00,0,WeatherCatV1.15B25,2013-04-14 00:18:00,
2013-04-13 20:23:00,58.0,38.4,29.79,WNW,284,0.0,0.0,48,0.00,,,0.00,0,WeatherCatV1.15B25,2013-04-14 00:23:00,
2013-04-13 20:28:00,58.6,34.4,29.79,WNW,294,1.0,5.0,40,0.00,,,0.00,0,WeatherCatV1.15B25,2013-04-14 00:28:00,
2013-04-13 20:33:00,59.2,36.7,29.79,WNW,294,0.0,0.0,43,0.00,,,0.00,0,WeatherCatV1.15B25,2013-04-14 00:33:00,
2013-04-13 20:38:00,58.9,39.2,29.79,WNW,294,0.0,0.0,48,0.00,,,0.00,0,WeatherCatV1.15B25,2013-04-14 00:38:00,
2013-04-13 20:43:00,58.3,38.7,29.79,WNW,289,0.0,0.0,48,0.00,,,0.00,0,WeatherCatV1.15B25,2013-04-14 00:43:00,
2013-04-13 20:48:00,57.8,36.6,29.80,WNW,289,0.0,0.0,45,0.00,,,0.00,0,WeatherCatV1.15B25,2013-04-14 00:48:00,
2013-04-13 20:53:00,57.6,40.6,29.80,WNW,291,1.0,5.0,53,0.00,,,0.00,0,WeatherCatV1.15B25,2013-04-14 00:53:00,
2013-04-13 20:58:00,58.3,32.8,29.80,WNW,291,3.0,3.0,38,0.00,,,0.00,0,WeatherCatV1.15B25,2013-04-14 00:58:00,
2013-04-13 21:03:00,58.1,38.0,29.80,WNW,291,2.0,3.0,47,0.00,,,0.00,0,WeatherCatV1.15B25,2013-04-14 01:03:00,
2013-04-13 21:08:00,56.6,37.1,29.80,WNW,291,4.0,5.0,48,0.00,,,0.00,0,WeatherCatV1.15B25,2013-04-14 01:08:00,
2013-04-13 21:13:00,56.7,33.9,29.80,WNW,282,5.0,5.0,42,0.00,,,0.00,0,WeatherCatV1.15B25,2013-04-14 01:13:00,
2013-04-13 21:18:00,57.5,31.4,29.81,WNW,292,0.0,7.0,37,0.00,,,0.00,0,WeatherCatV1.15B25,2013-04-14 01:18:00,
2013-04-13 21:23:00,58.3,32.1,29.81,WNW,291,5.0,7.0,37,0.00,,,0.00,0,WeatherCatV1.15B25,2013-04-14 01:23:00,
2013-04-13 21:28:00,59.6,26.5,29.81,West,268,2.0,10.0,28,0.00,,,0.00,0,WeatherCatV1.15B25,2013-04-14 01:28:00,
2013-04-13 21:33:00,60.1,26.9,29.82,WNW,288,2.0,6.0,28,0.00,,,0.00,0,WeatherCatV1.15B25,2013-04-14 01:33:00,
2013-04-13 21:38:00,60.5,25.4,29.82,WNW,296,5.0,14.0,26,0.00,,,0.00,0,WeatherCatV1.15B25,2013-04-14 01:38:00,
2013-04-13 21:43:00,61.0,25.9,29.82,WNW,285,13.0,17.0,26,0.00,,,0.00,0,WeatherCatV1.15B25,2013-04-14 01:43:00,
2013-04-13 21:48:00,61.6,26.4,29.83,West,278,8.0,13.0,26,0.00,,,0.00,0,WeatherCatV1.15B25,2013-04-14 01:48:00,
2013-04-13 21:53:00,61.5,27.2,29.83,NNW,332,5.0,8.0,27,0.00,,,0.00,0,WeatherCatV1.15B25,2013-04-14 01:53:00,
2013-04-13 21:58:00,61.3,27.0,29.83,WNW,289,7.0,11.0,27,0.00,,,0.00,0,WeatherCatV1.15B25,2013-04-14 01:58:00,
2013-04-13 22:03:00,61.2,27.0,29.83,WNW,298,6.0,9.0,27,0.00,,,0.00,0,WeatherCatV1.15B25,2013-04-14 02:03:00,
2013-04-13 22:08:00,61.0,26.8,29.83,NW,322,2.0,12.0,27,0.00,,,0.00,0,WeatherCatV1.15B25,2013-04-14 02:08:00,
2013-04-13 22:13:00,60.7,27.4,29.83,NW,309,3.0,7.0,28,0.00,,,0.00,0,WeatherCatV1.15B25,2013-04-14 02:13:00,
2013-04-13 22:18:00,60.7,27.4,29.84,NW,316,3.0,7.0,28,0.00,,,0.00,0,WeatherCatV1.15B25,2013-04-14 02:18:00,
2013-04-13 22:23:00,60.5,26.4,29.84,NW,306,6.0,9.0,27,0.00,,,0.00,0,WeatherCatV1.15B25,2013-04-14 02:23:00,
2013-04-13 22:28:00,60.2,26.1,29.84,NNW,346,6.0,7.0,27,0.00,,,0.00,0,WeatherCatV1.15B25,2013-04-14 02:28:00,
2013-04-13 22:33:00,59.9,28.4,29.85,NNW,339,7.0,10.0,30,0.00,,,0.00,0,WeatherCatV1.15B25,2013-04-14 02:33:00,
2013-04-13 22:38:00,59.6,28.1,29.85,North,359,7.0,10.0,30,0.00,,,0.00,0,WeatherCatV1.15B25,2013-04-14 02:38:00,
2013-04-13 22:43:00,59.0,28.4,29.85,NNW,346,6.0,11.0,31,0.00,,,0.00,0,WeatherCatV1.15B25,2013-04-14 02:43:00,
2013-04-13 22:48:00,58.6,28.8,29.86,NNW,344,7.0,11.0,32,0.00,,,0.00,0,WeatherCatV1.15B25,2013-04-14 02:48:00,
2013-04-13 22:53:00,58.0,30.5,29.86,NE,42,6.0,13.0,35,0.00,,,0.00,0,WeatherCatV1.15B25,2013-04-14 02:53:00,
2013-04-13 22:58:00,57.2,33.7,29.86,NNW,329,2.0,8.0,41,0.00,,,0.00,0,WeatherCatV1.15B25,2013-04-14 02:58:00,
2013-04-13 23:03:00,56.6,34.4,29.87,NNE,32,6.0,12.0,43,0.00,,,0.00,0,WeatherCatV1.15B25,2013-04-14 03:03:00,
2013-04-13 23:08:00,56.0,34.4,29.87,North,3,3.0,11.0,44,0.00,,,0.00,0,WeatherCatV1.15B25,2013-04-14 03:08:00,
2013-04-13 23:13:00,55.7,35.8,29.87,North,0,2.0,8.0,47,0.00,,,0.00,0,WeatherCatV1.15B25,2013-04-14 03:13:00,
2013-04-13 23:18:00,55.3,35.4,29.87,NNE,18,8.0,10.0,47,0.00,,,0.00,0,WeatherCatV1.15B25,2013-04-14 03:18:00,
2013-04-13 23:23:00,54.8,35.5,29.87,NE,47,6.0,7.0,48,0.00,,,0.00,0,WeatherCatV1.15B25,2013-04-14 03:23:00,
2013-04-13 23:28:00,54.5,35.2,29.87,North,0,3.0,9.0,48,0.00,,,0.00,0,WeatherCatV1.15B25,2013-04-14 03:28:00,
2013-04-13 23:33:00,54.2,34.9,29.88,NNW,343,0.0,6.0,48,0.00,,,0.00,0,WeatherCatV1.15B25,2013-04-14 03:33:00,
2013-04-13 23:38:00,54.1,35.4,29.88,NW,312,3.0,7.0,49,0.00,,,0.00,0,WeatherCatV1.15B25,2013-04-14 03:38:00,
2013-04-13 23:43:00,53.9,35.2,29.88,NNW,342,5.0,8.0,49,0.00,,,0.00,0,WeatherCatV1.15B25,2013-04-14 03:43:00,
2013-04-13 23:48:00,53.9,35.2,29.88,North,356,6.0,7.0,49,0.00,,,0.00,0,WeatherCatV1.15B25,2013-04-14 03:48:00,
2013-04-13 23:53:00,53.9,35.2,29.88,North,352,1.0,7.0,49,0.00,,,0.00,0,WeatherCatV1.15B25,2013-04-14 03:53:00,
2013-04-13 23:58:00,53.9,35.2,29.88,NNW,335,6.0,7.0,49,0.00,,,0.00,0,WeatherCatV1.15B25,2013-04-14 03:58:00,